Portada
METAR-TAF:

METAR-TAF

Aeroports :

Jerez de la Frontera, Espanya

latitud: 36-45N, longitud: 006-04W, altitud: 27 m

Observació

L'informe es va fer fa 26 minuts, a les 18:00 UTC
Vent 4 kt del Nord/Nord-Oest
Temperatura 20°C
Humitat 68%
Pressió 1015 hPa
Visibilitat 10 km o més
Escasses núvols a una alçada de 3500 ft

METAR: LEJR 161800Z 33004KT 9999 FEW035 20/14 Q1015

Hora: 20:26 (18:26 UTC)

Pronòstic

L'informe es va fer fa 1 hora i 26 minuts, a les 17:00 UTC
Pronòstic vàlid del 16 a les 18 UTC al 17 a les 18 UTC
Vent 5 kt del Nord-Est
Visibilitat 10 km o més
Escasses núvols a una alçada de 3000 ft
Probabilitat 40% :
Temporalment
l' 17 a les 05 UTC al 17 a les 09 UTC
Visibilitat: 4000 m
Cel ennuvolat a una alçada de 500 ft
boirina
Probabilitat 30% :
Temporalment
l' 17 a les 06 UTC al 17 a les 08 UTC
Visibilitat: 0500 m
a una alçada de 100 ft
boira

TAF: LEJR 161700Z 1618/1718 04005KT 9999 FEW030 TX26/1714Z TN11/1706Z PROB40 TEMPO 1705/1709 4000 BR BKN005 PROB30 TEMPO 1706/1708 0500 FG VV001

Observacions i pronòstics meteorològics de més de 4000 aeroports (METAR i TAF).

Les estacions disponibles són els punts grocs i vermells al mapa.

Posi el ratolí al punt desitjat per veure el nom de l'estació.

Feu clic per veure les observacions i els pronòstics meteorològics.

Per canviar el mapa: feu clic els botons verds amb una creu de color negre per apropar; al botó verd amb un guió per allunyar la imatge; o en les fletxes verdes per a mapes adjacents.


METAR-TAF: